Terminal Aerodrome Forecast
Issued by NWS Glasgow, MT

Home | Current Version | Previous Version | Text Only | Print | Product List | Glossary On
Versions: 1 2 3 4 5 6 7 8 9 10 11 12 13 14 15
471
FTUS45 KGGW 241139
TAFGGW
TAF
KGGW 241139Z 2412/2512 11006KT P6SM SCT016 OVC025
     FM241600 12007KT P6SM VCSH SCT009 OVC015
     FM242300 16005KT P6SM SCT029 BKN040
     FM250900 01005KT P6SM VCSH BKN015=

USA.gov is the U.S. government's official web portal to all federal, state and local government web resources and services.